DLH220 EDDE-EDDC
Flight info
| Callsign | DLH220 |
|---|---|
| Flight time | 0h 52m |
| Altitude | 13000 |
| Route | LASTO1D/27 LASTO T212 RELKO T278 NOTGO L620 BESIP Q240 DRN |
| Aircraft | A20N/M-SDE2E3FGHIRWXY/LB1 |
Departure
| Time | 2026-04-24 14:00 |
|---|---|
| Airport | Erfurt-Weimar Airport (EDDE) |
Arrival
| Time | 2026-04-24 14:53 |
|---|---|
| Airport | Dresden Airport (EDDC) |
| Time | Latitude | Longitude | Altitude | Speed | Heading |
|---|---|---|---|---|---|
| 2026-04-24 13:42 | 50.97579 | 10.96039 | 1043 ft | 0 kts | 189° |
| 2026-04-24 13:48 | 50.97590 | 10.96041 | 1043 ft | 3 kts | 189° |
| 2026-04-24 13:49 | 50.97608 | 10.96046 | 1043 ft | 3 kts | 204° |
| 2026-04-24 13:49 | 50.97621 | 10.96064 | 1043 ft | 3 kts | 236° |
| 2026-04-24 13:49 | 50.97630 | 10.96089 | 1043 ft | 3 kts | 268° |
| 2026-04-24 13:49 | 50.97633 | 10.96116 | 1043 ft | 3 kts | 267° |
| 2026-04-24 13:50 | 50.97633 | 10.96126 | 1042 ft | 0 kts | 270° |
| 2026-04-24 13:53 | 50.97633 | 10.96125 | 1043 ft | 0 kts | 272° |
| 2026-04-24 13:53 | 50.97644 | 10.96024 | 1043 ft | 12 kts | 280° |
| 2026-04-24 13:54 | 50.97688 | 10.95939 | 1043 ft | 10 kts | 349° |
| 2026-04-24 13:54 | 50.97748 | 10.95964 | 1043 ft | 9 kts | 51° |
| 2026-04-24 13:54 | 50.97750 | 10.96058 | 1043 ft | 9 kts | 97° |
| 2026-04-24 13:54 | 50.97738 | 10.96193 | 1042 ft | 10 kts | 97° |
| 2026-04-24 13:55 | 50.97729 | 10.96306 | 1042 ft | 11 kts | 97° |
| 2026-04-24 13:55 | 50.97722 | 10.96387 | 1041 ft | 11 kts | 97° |
| 2026-04-24 13:55 | 50.97712 | 10.96513 | 1041 ft | 12 kts | 97° |
| 2026-04-24 13:55 | 50.97701 | 10.96649 | 1040 ft | 13 kts | 95° |
| 2026-04-24 13:56 | 50.97690 | 10.96790 | 1039 ft | 13 kts | 97° |
| 2026-04-24 13:56 | 50.97678 | 10.96940 | 1039 ft | 14 kts | 97° |
| 2026-04-24 13:56 | 50.97683 | 10.97096 | 1038 ft | 15 kts | 81° |
| 2026-04-24 13:56 | 50.97698 | 10.97260 | 1037 ft | 15 kts | 82° |
| 2026-04-24 13:57 | 50.97706 | 10.97349 | 1036 ft | 1 kts | 82° |
| 2026-04-24 13:57 | 50.97709 | 10.97382 | 1036 ft | 4 kts | 82° |
| 2026-04-24 13:57 | 50.97715 | 10.97421 | 1036 ft | 0 kts | 70° |
| 2026-04-24 13:58 | 50.97721 | 10.97444 | 1036 ft | 8 kts | 63° |
| 2026-04-24 13:58 | 50.97753 | 10.97520 | 1035 ft | 9 kts | 50° |
| 2026-04-24 13:58 | 50.97810 | 10.97570 | 1033 ft | 10 kts | 356° |
| 2026-04-24 13:59 | 50.97845 | 10.97491 | 1033 ft | 9 kts | 275° |
| 2026-04-24 13:59 | 50.97861 | 10.97281 | 1037 ft | 42 kts | 277° |
| 2026-04-24 13:59 | 50.97929 | 10.96439 | 1043 ft | 111 kts | 277° |
| 2026-04-24 13:59 | 50.98055 | 10.94877 | 1077 ft | 168 kts | 277° |
| 2026-04-24 14:00 | 50.98226 | 10.92991 | 1603 ft | 172 kts | 278° |
| 2026-04-24 14:00 | 50.98381 | 10.91216 | 2520 ft | 159 kts | 277° |
| 2026-04-24 14:00 | 50.98530 | 10.89305 | 3035 ft | 195 kts | 277° |
| 2026-04-24 14:00 | 50.98710 | 10.86959 | 3428 ft | 233 kts | 277° |
| 2026-04-24 14:01 | 50.98914 | 10.84275 | 4079 ft | 254 kts | 277° |
| 2026-04-24 14:01 | 50.99130 | 10.81440 | 5033 ft | 262 kts | 277° |
| 2026-04-24 14:01 | 50.99444 | 10.78567 | 5951 ft | 267 kts | 288° |
| 2026-04-24 14:01 | 51.00436 | 10.76101 | 6542 ft | 271 kts | 319° |
| 2026-04-24 14:02 | 51.02128 | 10.74844 | 6779 ft | 273 kts | 352° |
| 2026-04-24 14:02 | 51.04003 | 10.75184 | 6816 ft | 275 kts | 17° |
| 2026-04-24 14:02 | 51.05722 | 10.76436 | 6806 ft | 277 kts | 33° |
| 2026-04-24 14:02 | 51.07124 | 10.78516 | 6809 ft | 278 kts | 53° |
| 2026-04-24 14:03 | 51.08126 | 10.81136 | 6812 ft | 278 kts | 62° |
| 2026-04-24 14:03 | 51.09021 | 10.83859 | 6810 ft | 278 kts | 62° |
| 2026-04-24 14:03 | 51.09912 | 10.86591 | 6810 ft | 278 kts | 62° |
| 2026-04-24 14:03 | 51.10769 | 10.89352 | 6809 ft | 278 kts | 67° |
| 2026-04-24 14:04 | 51.11366 | 10.92274 | 6810 ft | 278 kts | 77° |
| 2026-04-24 14:04 | 51.11686 | 10.95308 | 6810 ft | 278 kts | 82° |
| 2026-04-24 14:04 | 51.11929 | 10.98360 | 6811 ft | 278 kts | 83° |
| 2026-04-24 14:04 | 51.12161 | 11.01417 | 6811 ft | 278 kts | 83° |
| 2026-04-24 14:05 | 51.12395 | 11.04466 | 6810 ft | 278 kts | 83° |
| 2026-04-24 14:05 | 51.12629 | 11.07489 | 6809 ft | 278 kts | 83° |
| 2026-04-24 14:05 | 51.12862 | 11.10549 | 6811 ft | 278 kts | 83° |
| 2026-04-24 14:05 | 51.13071 | 11.13610 | 6810 ft | 278 kts | 84° |
| 2026-04-24 14:06 | 51.13272 | 11.16671 | 6810 ft | 278 kts | 84° |
| 2026-04-24 14:06 | 51.13470 | 11.19736 | 6810 ft | 278 kts | 84° |
| 2026-04-24 14:06 | 51.13668 | 11.22801 | 6809 ft | 278 kts | 84° |
| 2026-04-24 14:06 | 51.13865 | 11.25861 | 6811 ft | 278 kts | 84° |
| 2026-04-24 14:07 | 51.14062 | 11.28933 | 6809 ft | 278 kts | 84° |
| 2026-04-24 14:07 | 51.14257 | 11.31998 | 6820 ft | 278 kts | 84° |
| 2026-04-24 14:07 | 51.14452 | 11.35063 | 6971 ft | 279 kts | 84° |
| 2026-04-24 14:07 | 51.14644 | 11.38093 | 7002 ft | 279 kts | 84° |
| 2026-04-24 14:08 | 51.14838 | 11.41165 | 7000 ft | 279 kts | 84° |
| 2026-04-24 14:08 | 51.15031 | 11.44235 | 7002 ft | 279 kts | 84° |
| 2026-04-24 14:08 | 51.15223 | 11.47312 | 7005 ft | 279 kts | 84° |
| 2026-04-24 14:08 | 51.15414 | 11.50383 | 6998 ft | 279 kts | 84° |
| 2026-04-24 14:09 | 51.15606 | 11.53468 | 7001 ft | 280 kts | 84° |
| 2026-04-24 14:09 | 51.15796 | 11.56551 | 7002 ft | 279 kts | 84° |
| 2026-04-24 14:09 | 51.15984 | 11.59624 | 7000 ft | 279 kts | 84° |
| 2026-04-24 14:09 | 51.16174 | 11.62708 | 7002 ft | 279 kts | 84° |
| 2026-04-24 14:10 | 51.16362 | 11.65784 | 7002 ft | 279 kts | 84° |
| 2026-04-24 14:10 | 51.16548 | 11.68860 | 7002 ft | 279 kts | 84° |
| 2026-04-24 14:10 | 51.16732 | 11.71905 | 6997 ft | 279 kts | 84° |
| 2026-04-24 14:10 | 51.16917 | 11.74978 | 6997 ft | 279 kts | 84° |
| 2026-04-24 14:11 | 51.17102 | 11.78061 | 6996 ft | 279 kts | 84° |
| 2026-04-24 14:11 | 51.17285 | 11.81135 | 7001 ft | 279 kts | 84° |
| 2026-04-24 14:11 | 51.17649 | 11.87290 | 7000 ft | 279 kts | 84° |
| 2026-04-24 14:12 | 51.17829 | 11.90365 | 7003 ft | 279 kts | 84° |
| 2026-04-24 14:12 | 51.18009 | 11.93445 | 6997 ft | 279 kts | 84° |
| 2026-04-24 14:12 | 51.18187 | 11.96486 | 7000 ft | 279 kts | 84° |
| 2026-04-24 14:12 | 51.18365 | 11.99561 | 7004 ft | 279 kts | 84° |
| 2026-04-24 14:13 | 51.18543 | 12.02642 | 6996 ft | 279 kts | 84° |
| 2026-04-24 14:13 | 51.18721 | 12.05719 | 6998 ft | 279 kts | 85° |
| 2026-04-24 14:13 | 51.18897 | 12.08799 | 6998 ft | 279 kts | 85° |
| 2026-04-24 14:13 | 51.19072 | 12.11879 | 6997 ft | 279 kts | 85° |
| 2026-04-24 14:14 | 51.19246 | 12.14957 | 7006 ft | 279 kts | 85° |
| 2026-04-24 14:14 | 51.19420 | 12.18037 | 6999 ft | 279 kts | 85° |
| 2026-04-24 14:14 | 51.19765 | 12.24201 | 6996 ft | 279 kts | 85° |
| 2026-04-24 14:15 | 51.19934 | 12.27238 | 6997 ft | 279 kts | 85° |
| 2026-04-24 14:15 | 51.20105 | 12.30319 | 7004 ft | 279 kts | 85° |
| 2026-04-24 14:15 | 51.20274 | 12.33390 | 6999 ft | 279 kts | 85° |
| 2026-04-24 14:15 | 51.20443 | 12.36475 | 6996 ft | 279 kts | 85° |
| 2026-04-24 14:16 | 51.20611 | 12.39552 | 7003 ft | 279 kts | 85° |
| 2026-04-24 14:16 | 51.20779 | 12.42635 | 6997 ft | 279 kts | 85° |
| 2026-04-24 14:16 | 51.20946 | 12.45725 | 7001 ft | 279 kts | 85° |
| 2026-04-24 14:17 | 51.21276 | 12.51882 | 6996 ft | 279 kts | 85° |
| 2026-04-24 14:17 | 51.21438 | 12.54924 | 6994 ft | 279 kts | 85° |
| 2026-04-24 14:17 | 51.21763 | 12.61092 | 7003 ft | 279 kts | 85° |
| 2026-04-24 14:18 | 51.21925 | 12.64170 | 6996 ft | 279 kts | 85° |
| 2026-04-24 14:18 | 51.22086 | 12.67254 | 6998 ft | 279 kts | 85° |
| 2026-04-24 14:18 | 51.22246 | 12.70343 | 7001 ft | 279 kts | 85° |
| 2026-04-24 14:18 | 51.22405 | 12.73424 | 7003 ft | 279 kts | 85° |
| 2026-04-24 14:19 | 51.22563 | 12.76511 | 7003 ft | 279 kts | 85° |
| 2026-04-24 14:19 | 51.22719 | 12.79555 | 6996 ft | 279 kts | 85° |
| 2026-04-24 14:19 | 51.22876 | 12.82638 | 7003 ft | 279 kts | 85° |
| 2026-04-24 14:19 | 51.23032 | 12.85723 | 6996 ft | 279 kts | 85° |
| 2026-04-24 14:20 | 51.23187 | 12.88811 | 7002 ft | 279 kts | 85° |
| 2026-04-24 14:20 | 51.23341 | 12.91898 | 7001 ft | 279 kts | 85° |
| 2026-04-24 14:20 | 51.23495 | 12.94983 | 6995 ft | 279 kts | 85° |
| 2026-04-24 14:20 | 51.23647 | 12.98073 | 7003 ft | 279 kts | 85° |
| 2026-04-24 14:21 | 51.23799 | 13.01158 | 6997 ft | 279 kts | 85° |
| 2026-04-24 14:21 | 51.23949 | 13.04209 | 7002 ft | 279 kts | 85° |
| 2026-04-24 14:21 | 51.24098 | 13.07290 | 7004 ft | 279 kts | 85° |
| 2026-04-24 14:21 | 51.24248 | 13.10373 | 7002 ft | 279 kts | 85° |
| 2026-04-24 14:22 | 51.24396 | 13.13459 | 7002 ft | 279 kts | 85° |
| 2026-04-24 14:22 | 51.24544 | 13.16551 | 6995 ft | 279 kts | 85° |
| 2026-04-24 14:22 | 51.24837 | 13.22718 | 6998 ft | 279 kts | 85° |
| 2026-04-24 14:23 | 51.24983 | 13.25806 | 6999 ft | 279 kts | 85° |
| 2026-04-24 14:23 | 51.25128 | 13.28900 | 6995 ft | 279 kts | 85° |
| 2026-04-24 14:23 | 51.25272 | 13.31988 | 6998 ft | 279 kts | 85° |
| 2026-04-24 14:23 | 51.25415 | 13.35076 | 7002 ft | 279 kts | 85° |
| 2026-04-24 14:24 | 51.25555 | 13.38119 | 6993 ft | 279 kts | 85° |
| 2026-04-24 14:24 | 51.25696 | 13.41200 | 6997 ft | 279 kts | 86° |
| 2026-04-24 14:24 | 51.25837 | 13.44285 | 7004 ft | 279 kts | 86° |
| 2026-04-24 14:24 | 51.25977 | 13.47381 | 7003 ft | 279 kts | 86° |
| 2026-04-24 14:25 | 51.26116 | 13.50463 | 6993 ft | 279 kts | 86° |
| 2026-04-24 14:25 | 51.26254 | 13.53557 | 7002 ft | 279 kts | 86° |
| 2026-04-24 14:25 | 51.26391 | 13.56648 | 7000 ft | 279 kts | 86° |
| 2026-04-24 14:25 | 51.26527 | 13.59737 | 7004 ft | 279 kts | 86° |
| 2026-04-24 14:26 | 51.26661 | 13.62786 | 7001 ft | 279 kts | 86° |
| 2026-04-24 14:26 | 51.26796 | 13.65870 | 7003 ft | 279 kts | 86° |
| 2026-04-24 14:26 | 51.26930 | 13.68957 | 7005 ft | 279 kts | 86° |
| 2026-04-24 14:26 | 51.27064 | 13.72047 | 6993 ft | 277 kts | 86° |
| 2026-04-24 14:27 | 51.27190 | 13.75013 | 7001 ft | 259 kts | 86° |
| 2026-04-24 14:27 | 51.27309 | 13.77797 | 7004 ft | 243 kts | 86° |
| 2026-04-24 14:27 | 51.27419 | 13.80383 | 6998 ft | 225 kts | 86° |
| 2026-04-24 14:27 | 51.27522 | 13.82832 | 7005 ft | 217 kts | 86° |
| 2026-04-24 14:28 | 51.27621 | 13.85199 | 7004 ft | 211 kts | 86° |
| 2026-04-24 14:28 | 51.27718 | 13.87522 | 6999 ft | 210 kts | 86° |
| 2026-04-24 14:28 | 51.27814 | 13.89822 | 7001 ft | 210 kts | 86° |
| 2026-04-24 14:28 | 51.28043 | 13.92116 | 6988 ft | 209 kts | 64° |
| 2026-04-24 14:29 | 51.29026 | 13.93700 | 7000 ft | 203 kts | 19° |
| 2026-04-24 14:29 | 51.30389 | 13.93693 | 7001 ft | 202 kts | 333° |
| 2026-04-24 14:29 | 51.31503 | 13.92061 | 7013 ft | 237 kts | 306° |
| 2026-04-24 14:29 | 51.32462 | 13.89801 | 6995 ft | 251 kts | 303° |
| 2026-04-24 14:30 | 51.33119 | 13.88266 | 6995 ft | 253 kts | 305° |
| 2026-04-24 14:30 | 51.34520 | 13.85230 | 7001 ft | 254 kts | 307° |
| 2026-04-24 14:30 | 51.35611 | 13.83008 | 7003 ft | 254 kts | 308° |
| 2026-04-24 14:30 | 51.36719 | 13.80816 | 6997 ft | 253 kts | 309° |
| 2026-04-24 14:31 | 51.37856 | 13.78601 | 7001 ft | 269 kts | 309° |
| 2026-04-24 14:31 | 51.39066 | 13.76264 | 7001 ft | 275 kts | 309° |
| 2026-04-24 14:31 | 51.40289 | 13.73913 | 7001 ft | 275 kts | 309° |
| 2026-04-24 14:31 | 51.41518 | 13.71552 | 6994 ft | 275 kts | 309° |
| 2026-04-24 14:32 | 51.42805 | 13.69284 | 6995 ft | 275 kts | 321° |
| 2026-04-24 14:32 | 51.44549 | 13.68139 | 7001 ft | 274 kts | 355° |
| 2026-04-24 14:32 | 51.46392 | 13.68747 | 6999 ft | 275 kts | 29° |
| 2026-04-24 14:32 | 51.47713 | 13.70907 | 6995 ft | 276 kts | 63° |
| 2026-04-24 14:33 | 51.48061 | 13.73887 | 6999 ft | 276 kts | 97° |
| 2026-04-24 14:33 | 51.47550 | 13.76850 | 7001 ft | 277 kts | 111° |
| 2026-04-24 14:33 | 51.46767 | 13.79636 | 6997 ft | 278 kts | 117° |
| 2026-04-24 14:33 | 51.45782 | 13.82296 | 7000 ft | 278 kts | 124° |
| 2026-04-24 14:34 | 51.44636 | 13.84810 | 7000 ft | 278 kts | 128° |
| 2026-04-24 14:34 | 51.43402 | 13.87199 | 7001 ft | 278 kts | 131° |
| 2026-04-24 14:34 | 51.42195 | 13.89622 | 6998 ft | 278 kts | 122° |
| 2026-04-24 14:34 | 51.41421 | 13.92449 | 7003 ft | 278 kts | 107° |
| 2026-04-24 14:35 | 51.40921 | 13.95443 | 6829 ft | 279 kts | 104° |
| 2026-04-24 14:35 | 51.40461 | 13.98499 | 6155 ft | 286 kts | 103° |
| 2026-04-24 14:35 | 51.40000 | 14.01557 | 5999 ft | 276 kts | 104° |
| 2026-04-24 14:35 | 51.39547 | 14.04516 | 6000 ft | 273 kts | 104° |
| 2026-04-24 14:36 | 51.39093 | 14.07433 | 6000 ft | 274 kts | 104° |
| 2026-04-24 14:36 | 51.38628 | 14.10398 | 5998 ft | 275 kts | 104° |
| 2026-04-24 14:36 | 51.37992 | 14.13273 | 5998 ft | 275 kts | 119° |
| 2026-04-24 14:36 | 51.36977 | 14.15863 | 5994 ft | 274 kts | 117° |
| 2026-04-24 14:37 | 51.36602 | 14.18801 | 5994 ft | 273 kts | 83° |
| 2026-04-24 14:37 | 51.37316 | 14.21559 | 5997 ft | 272 kts | 49° |
| 2026-04-24 14:37 | 51.38871 | 14.23190 | 5995 ft | 271 kts | 14° |
| 2026-04-24 14:37 | 51.40722 | 14.23130 | 5998 ft | 269 kts | 340° |
| 2026-04-24 14:38 | 51.42217 | 14.21413 | 5996 ft | 268 kts | 306° |
| 2026-04-24 14:38 | 51.42993 | 14.18748 | 6002 ft | 269 kts | 287° |
| 2026-04-24 14:38 | 51.43447 | 14.15836 | 6001 ft | 271 kts | 280° |
| 2026-04-24 14:38 | 51.43677 | 14.12843 | 5994 ft | 271 kts | 269° |
| 2026-04-24 14:39 | 51.43338 | 14.09888 | 6000 ft | 270 kts | 258° |
| 2026-04-24 14:39 | 51.43076 | 14.06902 | 6000 ft | 271 kts | 261° |
| 2026-04-24 14:39 | 51.42651 | 14.03967 | 5999 ft | 271 kts | 250° |
| 2026-04-24 14:39 | 51.41743 | 14.01345 | 5997 ft | 271 kts | 230° |
| 2026-04-24 14:40 | 51.40282 | 13.99462 | 5833 ft | 272 kts | 207° |
| 2026-04-24 14:40 | 51.38448 | 13.98596 | 5120 ft | 282 kts | 191° |
| 2026-04-24 14:40 | 51.36494 | 13.98090 | 4506 ft | 286 kts | 189° |
| 2026-04-24 14:40 | 51.34571 | 13.97691 | 4242 ft | 277 kts | 186° |
| 2026-04-24 14:41 | 51.32697 | 13.97488 | 4204 ft | 265 kts | 183° |
| 2026-04-24 14:41 | 51.30861 | 13.97318 | 4201 ft | 265 kts | 184° |
| 2026-04-24 14:41 | 51.29022 | 13.97063 | 4200 ft | 266 kts | 186° |
| 2026-04-24 14:41 | 51.27279 | 13.96211 | 4202 ft | 264 kts | 214° |
| 2026-04-24 14:42 | 51.26144 | 13.93987 | 4199 ft | 262 kts | 250° |
| 2026-04-24 14:42 | 51.26032 | 13.91138 | 4199 ft | 261 kts | 285° |
| 2026-04-24 14:42 | 51.26949 | 13.88662 | 4203 ft | 262 kts | 314° |
| 2026-04-24 14:42 | 51.28422 | 13.86955 | 4199 ft | 264 kts | 334° |
| 2026-04-24 14:43 | 51.30165 | 13.86195 | 4199 ft | 265 kts | 356° |
| 2026-04-24 14:43 | 51.31975 | 13.86648 | 4201 ft | 266 kts | 22° |
| 2026-04-24 14:43 | 51.33533 | 13.88220 | 4199 ft | 266 kts | 38° |
| 2026-04-24 14:43 | 51.34955 | 13.90130 | 4199 ft | 267 kts | 40° |
| 2026-04-24 14:44 | 51.36366 | 13.92061 | 4199 ft | 267 kts | 40° |
| 2026-04-24 14:44 | 51.37782 | 13.93984 | 4204 ft | 267 kts | 40° |
| 2026-04-24 14:44 | 51.39203 | 13.95908 | 4202 ft | 267 kts | 40° |
| 2026-04-24 14:44 | 51.40623 | 13.97828 | 4199 ft | 267 kts | 40° |
| 2026-04-24 14:45 | 51.42044 | 13.99751 | 4203 ft | 267 kts | 40° |
| 2026-04-24 14:45 | 51.43447 | 14.01641 | 4203 ft | 267 kts | 39° |
| 2026-04-24 14:45 | 51.44787 | 14.03694 | 4196 ft | 267 kts | 52° |
| 2026-04-24 14:45 | 51.45587 | 14.06350 | 4199 ft | 267 kts | 79° |
| 2026-04-24 14:46 | 51.45504 | 14.09289 | 4200 ft | 266 kts | 108° |
| 2026-04-24 14:46 | 51.44566 | 14.11816 | 4202 ft | 266 kts | 135° |
| 2026-04-24 14:46 | 51.43022 | 14.13368 | 4199 ft | 265 kts | 162° |
| 2026-04-24 14:46 | 51.41199 | 14.13620 | 4199 ft | 264 kts | 190° |
| 2026-04-24 14:47 | 51.39514 | 14.12521 | 4203 ft | 263 kts | 214° |
| 2026-04-24 14:47 | 51.38087 | 14.10741 | 4200 ft | 264 kts | 220° |
| 2026-04-24 14:47 | 51.36695 | 14.08816 | 4200 ft | 265 kts | 221° |
| 2026-04-24 14:47 | 51.35285 | 14.06924 | 4200 ft | 265 kts | 220° |
| 2026-04-24 14:48 | 51.33867 | 14.05046 | 4192 ft | 264 kts | 220° |
| 2026-04-24 14:48 | 51.32467 | 14.03132 | 4199 ft | 265 kts | 221° |
| 2026-04-24 14:48 | 51.31074 | 14.01207 | 4181 ft | 265 kts | 221° |
| 2026-04-24 14:48 | 51.29685 | 13.99285 | 4206 ft | 264 kts | 221° |
| 2026-04-24 14:49 | 51.28300 | 13.97364 | 4201 ft | 264 kts | 221° |
| 2026-04-24 14:49 | 51.26911 | 13.95433 | 4053 ft | 265 kts | 221° |
| 2026-04-24 14:49 | 51.25519 | 13.93500 | 3688 ft | 265 kts | 221° |
| 2026-04-24 14:49 | 51.24149 | 13.91607 | 3296 ft | 263 kts | 221° |
| 2026-04-24 14:50 | 51.22774 | 13.89704 | 2930 ft | 259 kts | 221° |
| 2026-04-24 14:50 | 51.21470 | 13.87900 | 2605 ft | 236 kts | 221° |
| 2026-04-24 14:50 | 51.20299 | 13.86285 | 2300 ft | 210 kts | 221° |
| 2026-04-24 14:50 | 51.19246 | 13.84830 | 2028 ft | 192 kts | 221° |
| 2026-04-24 14:51 | 51.18277 | 13.83489 | 1775 ft | 178 kts | 221° |
| 2026-04-24 14:51 | 51.17377 | 13.82246 | 1559 ft | 165 kts | 221° |
| 2026-04-24 14:51 | 51.16533 | 13.81079 | 1343 ft | 162 kts | 221° |
| 2026-04-24 14:51 | 51.15683 | 13.79905 | 1117 ft | 162 kts | 221° |
| 2026-04-24 14:52 | 51.14834 | 13.78733 | 925 ft | 159 kts | 221° |
| 2026-04-24 14:52 | 51.14006 | 13.77591 | 746 ft | 157 kts | 221° |
| 2026-04-24 14:52 | 51.13253 | 13.76554 | 745 ft | 121 kts | 222° |
| 2026-04-24 14:52 | 51.12758 | 13.75857 | 758 ft | 68 kts | 221° |
| 2026-04-24 14:53 | 51.12581 | 13.75618 | 769 ft | 19 kts | 220° |
| 2026-04-24 14:53 | 51.12477 | 13.75514 | 772 ft | 17 kts | 176° |
| 2026-04-24 14:53 | 51.12399 | 13.75656 | 768 ft | 16 kts | 115° |
| 2026-04-24 14:53 | 51.12376 | 13.75746 | 768 ft | 8 kts | 110° |
| 2026-04-24 14:54 | 51.12385 | 13.75828 | 767 ft | 8 kts | 56° |
| 2026-04-24 14:54 | 51.12426 | 13.75900 | 767 ft | 9 kts | 45° |
| 2026-04-24 14:54 | 51.12474 | 13.75966 | 765 ft | 9 kts | 45° |
| 2026-04-24 14:54 | 51.12527 | 13.76057 | 762 ft | 12 kts | 36° |
| 2026-04-24 14:55 | 51.12577 | 13.76108 | 757 ft | 14 kts | 32° |
| 2026-04-24 14:55 | 51.12689 | 13.76252 | 755 ft | 18 kts | 41° |
| 2026-04-24 14:55 | 51.12788 | 13.76389 | 752 ft | 19 kts | 41° |
| 2026-04-24 14:55 | 51.12896 | 13.76538 | 749 ft | 22 kts | 41° |
| 2026-04-24 14:56 | 51.12913 | 13.76598 | 751 ft | 6 kts | 144° |
| 2026-04-24 14:56 | 51.12815 | 13.76621 | 751 ft | 15 kts | 180° |
| 2026-04-24 14:56 | 51.12724 | 13.76573 | 752 ft | 12 kts | 221° |
| 2026-04-24 14:56 | 51.12669 | 13.76494 | 755 ft | 8 kts | 217° |
| 2026-04-24 14:57 | 51.12661 | 13.76485 | 755 ft | 0 kts | 217° |
| 2026-04-24 14:57 | 51.12661 | 13.76484 | 755 ft | 0 kts | 217° |